createdAt,value
2023-05-23T00:00:11.531Z,10.23
2023-05-23T00:03:05.860Z,8.85
2023-05-23T00:05:34.693Z,8.32
2023-05-23T00:08:04.988Z,9.98
2023-05-23T00:10:33.715Z,10.55
2023-05-23T00:13:05.584Z,11.63
2023-05-23T00:15:34.386Z,9.80
2023-05-23T00:18:03.443Z,11.77
2023-05-23T00:20:32.270Z,13.25
2023-05-23T00:23:01.267Z,12.48
2023-05-23T00:25:34.393Z,16.02
2023-05-23T00:28:06.295Z,11.50
2023-05-23T00:30:35.786Z,13.75
2023-05-23T00:33:05.196Z,13.20
2023-05-23T00:35:33.978Z,12.48
2023-05-23T00:38:03.436Z,13.63
2023-05-23T00:40:32.192Z,10.75
2023-05-23T00:43:01.927Z,12.90
2023-05-23T00:45:32.152Z,12.85
2023-05-23T00:48:02.678Z,11.70
2023-05-23T00:50:32.074Z,12.13
2023-05-23T00:53:02.829Z,14.13
2023-05-23T00:55:32.475Z,10.98
2023-05-23T00:58:02.025Z,10.75
2023-05-23T01:00:34.235Z,11.15
2023-05-23T01:03:04.075Z,11.48
2023-05-23T01:05:32.854Z,13.20
2023-05-23T01:08:03.405Z,11.02
2023-05-23T01:10:33.257Z,10.07
2023-05-23T01:13:19.205Z,8.75
2023-05-23T01:15:59.821Z,10.90
2023-05-23T01:18:41.484Z,10.65
2023-05-23T01:21:18.429Z,12.48
2023-05-23T01:24:36.292Z,9.13
2023-05-23T01:27:24.723Z,10.00
2023-05-23T01:29:59.749Z,11.80
2023-05-23T01:32:30.266Z,9.85
2023-05-23T01:35:02.042Z,9.27
2023-05-23T01:37:31.294Z,11.80
2023-05-23T01:40:01.230Z,11.43
2023-05-23T01:42:30.707Z,14.57
2023-05-23T01:45:01.207Z,11.32
2023-05-23T01:47:30.545Z,13.45
2023-05-23T01:50:02.621Z,13.32
2023-05-23T01:52:31.672Z,13.52
2023-05-23T01:55:02.278Z,8.98
2023-05-23T01:57:31.989Z,9.20
2023-05-23T02:00:02.625Z,10.02
2023-05-23T02:02:42.739Z,11.63
2023-05-23T02:05:12.691Z,9.93
2023-05-23T02:07:41.517Z,11.15
2023-05-23T02:10:11.937Z,8.88
2023-05-23T02:12:40.849Z,10.77
2023-05-23T02:15:12.300Z,10.73
2023-05-23T02:17:41.513Z,9.35
2023-05-23T02:20:11.771Z,11.48
2023-05-23T02:22:40.638Z,8.60
2023-05-23T02:25:11.341Z,10.25
2023-05-23T02:27:41.482Z,10.65
2023-05-23T02:30:13.376Z,9.30
2023-05-23T02:32:42.267Z,7.50
2023-05-23T02:35:11.472Z,8.20
2023-05-23T02:37:40.286Z,10.38
2023-05-23T02:40:10.811Z,9.85
2023-05-23T02:42:39.647Z,8.10
2023-05-23T02:45:12.040Z,10.85
2023-05-23T02:47:41.002Z,11.02
2023-05-23T02:50:12.688Z,10.80
2023-05-23T02:52:42.409Z,9.07
2023-05-23T02:55:11.520Z,10.38
2023-05-23T02:57:44.680Z,10.68
2023-05-23T03:00:16.247Z,12.48
2023-05-23T03:02:49.856Z,9.05
2023-05-23T03:05:19.924Z,9.88
2023-05-23T03:07:48.798Z,9.00
2023-05-23T03:10:18.126Z,10.23
2023-05-23T03:12:48.722Z,12.80
2023-05-23T03:15:21.071Z,11.75
2023-05-23T03:17:50.186Z,10.90
2023-05-23T03:20:19.264Z,10.57
2023-05-23T03:22:48.299Z,10.05
2023-05-23T03:25:17.690Z,8.38
2023-05-23T03:27:46.505Z,9.90
2023-05-23T03:30:15.874Z,10.68
2023-05-23T03:32:46.689Z,7.80
2023-05-23T03:35:15.760Z,8.95
2023-05-23T03:37:44.517Z,12.20
2023-05-23T03:40:13.761Z,10.00
2023-05-23T03:42:43.102Z,11.77
2023-05-23T03:45:12.862Z,10.15
2023-05-23T03:47:43.008Z,13.23
2023-05-23T03:50:14.001Z,13.77
2023-05-23T03:52:43.499Z,12.63
2023-05-23T03:55:12.776Z,15.32
2023-05-23T03:57:41.812Z,12.95
2023-05-23T04:00:12.836Z,12.55
2023-05-23T04:02:48.596Z,10.70
2023-05-23T04:05:21.741Z,10.82
2023-05-23T04:07:52.730Z,12.60
2023-05-23T04:10:21.991Z,12.77
2023-05-23T04:12:51.744Z,11.00
2023-05-23T04:15:21.702Z,10.60
2023-05-23T04:18:10.433Z,11.18
2023-05-23T04:20:41.973Z,10.55
2023-05-23T04:23:11.200Z,11.95
2023-05-23T04:25:43.253Z,10.23
2023-05-23T04:28:17.894Z,11.05
2023-05-23T04:30:49.526Z,10.10
2023-05-23T04:33:21.797Z,10.43
2023-05-23T04:35:52.299Z,12.00
2023-05-23T04:38:22.191Z,13.20
2023-05-23T04:40:53.293Z,13.23
2023-05-23T04:43:42.688Z,8.15
2023-05-23T04:46:31.038Z,7.30
2023-05-23T04:49:14.511Z,9.68
2023-05-23T04:51:45.863Z,9.65
2023-05-23T04:54:21.824Z,9.15
2023-05-23T04:56:51.338Z,10.82
2023-05-23T04:59:22.179Z,8.73
2023-05-23T05:01:51.354Z,7.57
2023-05-23T05:04:23.390Z,8.07
2023-05-23T05:06:54.469Z,7.50
2023-05-23T05:09:23.731Z,8.68
2023-05-23T05:11:53.451Z,7.20
2023-05-23T05:14:23.048Z,8.23
2023-05-23T05:16:52.103Z,6.75
2023-05-23T05:19:23.263Z,7.30
2023-05-23T05:21:53.762Z,9.38
2023-05-23T05:24:22.638Z,7.35
2023-05-23T05:26:51.868Z,9.23
2023-05-23T05:29:20.693Z,7.85
2023-05-23T05:31:49.702Z,7.57
2023-05-23T05:34:18.750Z,5.97
2023-05-23T05:36:48.361Z,8.43
2023-05-23T05:39:20.793Z,9.10
2023-05-23T05:41:50.779Z,8.65
2023-05-23T05:44:19.698Z,7.75
2023-05-23T05:46:49.502Z,7.80
2023-05-23T05:49:18.308Z,7.55
2023-05-23T05:51:48.332Z,8.60
2023-05-23T05:54:19.110Z,7.45
2023-05-23T05:56:49.835Z,10.38
2023-05-23T05:59:18.652Z,9.75
2023-05-23T06:01:47.756Z,7.60
2023-05-23T06:04:16.624Z,8.43
2023-05-23T06:06:46.103Z,6.50
2023-05-23T06:09:14.904Z,9.45
2023-05-23T06:11:45.139Z,13.80
2023-05-23T06:14:15.232Z,8.18
2023-05-23T06:16:48.309Z,11.40
2023-05-23T06:19:17.223Z,9.38
2023-05-23T06:21:47.344Z,10.93
2023-05-23T06:24:17.198Z,11.13
2023-05-23T06:26:46.296Z,11.85
2023-05-23T06:29:17.477Z,7.50
2023-05-23T06:31:46.690Z,5.93
2023-05-23T06:34:15.530Z,6.82
2023-05-23T06:36:46.951Z,8.50
2023-05-23T06:39:15.968Z,8.73
2023-05-23T06:41:45.815Z,14.25
2023-05-23T06:44:16.607Z,9.35
2023-05-23T06:46:47.706Z,10.38
2023-05-23T06:49:16.991Z,9.05
2023-05-23T06:51:47.551Z,11.43
2023-05-23T06:54:17.038Z,11.30
2023-05-23T06:56:46.686Z,7.50
2023-05-23T06:59:27.028Z,11.13
2023-05-23T07:02:01.327Z,8.30
2023-05-23T07:04:30.980Z,5.88
2023-05-23T07:07:05.268Z,5.88
2023-05-23T07:09:34.456Z,3.83
2023-05-23T07:12:14.775Z,4.43
2023-05-23T07:14:47.236Z,6.68
2023-05-23T07:17:17.264Z,6.53
2023-05-23T07:19:47.708Z,6.75
2023-05-23T07:22:16.948Z,8.00
2023-05-23T07:24:46.389Z,6.82
2023-05-23T07:27:16.836Z,6.82
2023-05-23T07:29:47.037Z,6.07
2023-05-23T07:32:16.257Z,7.55
2023-05-23T07:34:45.848Z,5.13
2023-05-23T07:37:14.894Z,5.75
2023-05-23T07:39:46.282Z,3.67
2023-05-23T07:42:15.437Z,4.43
2023-05-23T07:44:44.276Z,5.97
2023-05-23T07:47:14.869Z,6.25
2023-05-23T07:49:44.650Z,4.80
2023-05-23T07:52:13.735Z,4.53
2023-05-23T07:54:42.795Z,4.20
2023-05-23T07:57:13.254Z,5.28
2023-05-23T07:59:42.172Z,3.63
2023-05-23T08:02:11.876Z,3.78
2023-05-23T08:04:45.017Z,3.85
2023-05-23T08:07:15.820Z,2.78
2023-05-23T08:09:49.440Z,3.50
2023-05-23T08:12:21.390Z,6.63
2023-05-23T08:14:54.070Z,2.72
2023-05-23T08:17:28.517Z,7.90
2023-05-23T08:20:00.638Z,4.38
2023-05-23T08:22:30.829Z,3.60
2023-05-23T08:25:00.141Z,3.38
2023-05-23T08:27:32.033Z,4.53
2023-05-23T08:30:09.896Z,3.83
2023-05-23T08:32:40.144Z,3.35
2023-05-23T08:35:10.879Z,5.05
2023-05-23T08:37:43.145Z,4.28
2023-05-23T08:40:19.676Z,2.80
2023-05-23T08:42:53.738Z,3.88
2023-05-23T08:45:23.797Z,4.40
2023-05-23T08:47:55.786Z,3.35
2023-05-23T08:50:31.309Z,3.30
2023-05-23T08:53:01.305Z,2.63
2023-05-23T08:55:32.388Z,4.80
2023-05-23T08:58:04.618Z,2.80
2023-05-23T09:00:50.227Z,3.10
2023-05-23T09:03:20.126Z,4.47
2023-05-23T09:06:12.987Z,5.45
2023-05-23T09:08:46.126Z,3.95
2023-05-23T09:11:16.649Z,3.38
2023-05-23T09:13:48.335Z,4.35
2023-05-23T09:16:21.262Z,3.15
2023-05-23T09:18:54.093Z,3.92
2023-05-23T09:21:26.318Z,2.75
2023-05-23T09:24:07.002Z,5.70
2023-05-23T09:26:36.363Z,5.53
2023-05-23T09:29:07.959Z,2.83
2023-05-23T09:31:37.496Z,4.30
2023-05-23T09:34:07.012Z,7.07
2023-05-23T09:36:37.533Z,2.88
2023-05-23T09:39:08.208Z,3.35
2023-05-23T09:41:37.190Z,2.92
2023-05-23T09:44:10.072Z,4.18
2023-05-23T09:46:39.522Z,3.72
2023-05-23T09:49:19.080Z,2.90
2023-05-23T09:52:00.949Z,4.40
2023-05-23T09:54:30.105Z,3.42
2023-05-23T09:57:04.282Z,4.13
2023-05-23T09:59:40.169Z,3.90
2023-05-23T10:02:13.578Z,5.80
2023-05-23T10:04:44.631Z,6.03
2023-05-23T10:07:22.429Z,4.53
2023-05-23T10:09:59.114Z,4.18
2023-05-23T10:12:51.368Z,4.45
2023-05-23T10:15:24.025Z,3.22
2023-05-23T10:18:09.141Z,5.20
2023-05-23T10:20:41.843Z,4.15
2023-05-23T10:23:13.814Z,3.50
2023-05-23T10:25:45.677Z,4.55
2023-05-23T10:28:16.564Z,3.97
2023-05-23T10:30:46.995Z,4.38
2023-05-23T10:33:17.942Z,3.17
2023-05-23T10:35:58.632Z,3.05
2023-05-23T10:38:39.871Z,4.60
2023-05-23T10:41:19.865Z,4.60
2023-05-23T10:43:58.431Z,4.57
2023-05-23T10:46:55.149Z,3.83
2023-05-23T10:49:39.048Z,4.97
2023-05-23T10:52:08.954Z,3.17
2023-05-23T10:54:45.212Z,3.22
2023-05-23T10:57:19.191Z,2.88
2023-05-23T10:59:51.704Z,3.22
2023-05-23T11:02:27.590Z,4.40
2023-05-23T11:05:23.512Z,4.38
2023-05-23T11:08:13.954Z,5.05
2023-05-23T11:11:00.755Z,3.53
2023-05-23T11:14:00.473Z,5.47
2023-05-23T11:16:31.928Z,6.35
2023-05-23T11:19:26.376Z,4.45
2023-05-23T11:21:59.646Z,3.15
2023-05-23T11:24:52.354Z,4.30
2023-05-23T11:27:31.989Z,3.22
2023-05-23T11:30:05.381Z,4.45
2023-05-23T11:32:35.574Z,3.83
2023-05-23T11:35:07.131Z,6.50
2023-05-23T11:37:37.127Z,2.88
2023-05-23T11:40:28.965Z,3.20
2023-05-23T11:42:59.884Z,4.43
2023-05-23T11:45:32.332Z,2.60
2023-05-23T11:48:07.462Z,3.85
2023-05-23T11:50:45.296Z,3.20
2023-05-23T11:53:17.129Z,2.97
2023-05-23T11:55:55.306Z,4.03
2023-05-23T11:58:29.605Z,4.63
2023-05-23T12:01:02.863Z,2.85
2023-05-23T12:03:32.088Z,3.40
2023-05-23T12:06:02.006Z,4.10
2023-05-23T12:08:30.782Z,3.08
2023-05-23T12:11:02.016Z,4.70
2023-05-23T12:13:32.286Z,4.35
2023-05-23T12:16:04.646Z,5.32
2023-05-23T12:18:35.945Z,3.97
2023-05-23T12:21:08.348Z,3.70
2023-05-23T12:23:38.135Z,5.15
2023-05-23T12:26:10.227Z,3.05
2023-05-23T12:28:42.990Z,5.25
2023-05-23T12:31:13.592Z,3.15
2023-05-23T12:33:44.091Z,3.42
2023-05-23T12:36:13.981Z,3.15
2023-05-23T12:38:46.341Z,4.72
2023-05-23T12:41:20.520Z,6.63
2023-05-23T12:43:55.311Z,3.53
2023-05-23T12:46:26.265Z,4.78
2023-05-23T12:48:56.338Z,5.45
2023-05-23T12:51:25.602Z,4.97
2023-05-23T12:53:55.756Z,6.90
2023-05-23T12:56:25.101Z,4.35
2023-05-23T12:58:55.203Z,4.28
2023-05-23T13:01:24.634Z,3.63
2023-05-23T13:03:53.675Z,3.45
2023-05-23T13:06:22.935Z,4.10
2023-05-23T13:08:52.710Z,3.63
2023-05-23T13:11:22.510Z,5.60
2023-05-23T13:13:52.896Z,4.07
2023-05-23T13:16:23.771Z,4.60
2023-05-23T13:18:53.916Z,3.30
2023-05-23T13:21:23.566Z,5.70
2023-05-23T13:23:52.329Z,5.18
2023-05-23T13:26:21.859Z,3.88
2023-05-23T13:28:50.647Z,4.05
2023-05-23T13:31:19.807Z,4.75
2023-05-23T13:33:49.983Z,3.83
2023-05-23T13:36:19.193Z,5.05
2023-05-23T13:38:47.962Z,4.47
2023-05-23T13:41:17.028Z,3.65
2023-05-23T13:43:45.837Z,5.93
2023-05-23T13:46:15.014Z,3.75
2023-05-23T13:48:43.998Z,4.65
2023-05-23T13:51:14.429Z,5.07
2023-05-23T13:53:43.285Z,4.88
2023-05-23T13:56:12.532Z,4.55
2023-05-23T13:58:42.955Z,3.55
2023-05-23T14:01:12.056Z,3.42
2023-05-23T14:03:41.194Z,5.18
2023-05-23T14:06:10.363Z,4.22
2023-05-23T14:08:40.701Z,3.92
2023-05-23T14:11:09.846Z,4.13
2023-05-23T14:13:38.641Z,5.60
2023-05-23T14:16:08.206Z,4.03
2023-05-23T14:18:37.049Z,7.82
2023-05-23T14:21:06.252Z,4.50
2023-05-23T14:23:34.995Z,4.55
2023-05-23T14:26:06.644Z,3.60
2023-05-23T14:28:35.596Z,4.43
2023-05-23T14:31:04.708Z,4.38
2023-05-23T14:33:33.614Z,5.32
2023-05-23T14:36:03.044Z,6.00
2023-05-23T14:38:31.831Z,4.13
2023-05-23T14:41:00.876Z,3.67
2023-05-23T14:43:31.353Z,7.00
2023-05-23T14:46:01.326Z,5.50
2023-05-23T14:48:30.071Z,4.63
2023-05-23T14:51:01.703Z,3.75
2023-05-23T14:53:30.712Z,4.30
2023-05-23T14:55:59.718Z,4.57
2023-05-23T14:58:29.898Z,4.47
2023-05-23T15:00:59.112Z,5.72
2023-05-23T15:03:28.413Z,6.10
2023-05-23T15:05:57.538Z,5.55
2023-05-23T15:08:26.336Z,4.55
2023-05-23T15:10:55.719Z,4.15
2023-05-23T15:13:24.627Z,4.47
2023-05-23T15:15:55.184Z,4.43
2023-05-23T15:18:38.846Z,3.97
2023-05-23T15:21:10.820Z,4.53
2023-05-23T15:23:39.748Z,5.00
2023-05-23T15:26:08.836Z,5.35
2023-05-23T15:28:37.637Z,6.38
2023-05-23T15:31:08.101Z,5.15
2023-05-23T15:33:36.835Z,6.60
2023-05-23T15:36:09.314Z,4.90
2023-05-23T15:38:38.028Z,4.15
2023-05-23T15:41:07.461Z,5.07
2023-05-23T15:43:36.570Z,4.43
2023-05-23T15:46:07.719Z,5.00
2023-05-23T15:48:36.563Z,4.13
2023-05-23T15:51:06.103Z,5.22
2023-05-23T15:53:43.358Z,4.72
2023-05-23T15:56:17.592Z,5.93
2023-05-23T15:58:46.478Z,4.55
2023-05-23T16:01:16.980Z,4.32
2023-05-23T16:03:45.826Z,4.13
2023-05-23T16:06:15.178Z,4.75
2023-05-23T16:08:44.080Z,5.50
2023-05-23T16:11:13.312Z,4.30
2023-05-23T16:13:42.154Z,5.07
2023-05-23T16:16:11.347Z,5.53
2023-05-23T16:18:41.547Z,4.65
2023-05-23T16:21:11.031Z,6.20
2023-05-23T16:23:39.882Z,6.03
2023-05-23T16:26:08.898Z,5.78
2023-05-23T16:28:37.619Z,5.00
2023-05-23T16:31:06.814Z,5.65
2023-05-23T16:33:36.183Z,6.05
2023-05-23T16:36:07.317Z,4.22
2023-05-23T16:38:36.218Z,4.57
2023-05-23T16:41:05.516Z,6.00
2023-05-23T16:43:35.163Z,6.30
2023-05-23T16:46:04.660Z,5.05
2023-05-23T16:48:33.605Z,4.72
2023-05-23T16:51:02.739Z,4.68
2023-05-23T16:53:33.014Z,5.00
2023-05-23T16:56:02.018Z,5.43
2023-05-23T16:58:31.092Z,5.68
2023-05-23T17:01:00.129Z,7.13
2023-05-23T17:03:29.491Z,7.03
2023-05-23T17:05:58.646Z,5.70
2023-05-23T17:08:49.051Z,6.55
2023-05-23T17:11:18.297Z,6.85
2023-05-23T17:13:47.154Z,4.97
2023-05-23T17:16:20.353Z,4.70
2023-05-23T17:18:49.621Z,6.07
2023-05-23T17:21:18.750Z,5.72
2023-05-23T17:23:48.985Z,6.15
2023-05-23T17:26:19.621Z,4.75
2023-05-23T17:28:48.776Z,6.25
2023-05-23T17:31:18.347Z,6.15
2023-05-23T17:33:47.465Z,9.18
2023-05-23T17:36:16.597Z,9.05
2023-05-23T17:38:45.641Z,7.97
2023-05-23T17:41:17.624Z,6.70
2023-05-23T17:43:46.550Z,8.35
2023-05-23T17:46:15.654Z,6.75
2023-05-23T17:48:46.963Z,6.07
2023-05-23T17:51:17.598Z,8.27
2023-05-23T17:53:46.349Z,5.60
2023-05-23T17:56:16.751Z,6.55
2023-05-23T17:58:45.610Z,6.15
2023-05-23T18:01:14.758Z,7.15
2023-05-23T18:03:43.809Z,9.20
2023-05-23T18:06:13.168Z,7.50
2023-05-23T18:08:42.633Z,5.70
2023-05-23T18:11:11.832Z,7.85
2023-05-23T18:13:41.964Z,9.73
2023-05-23T18:16:11.007Z,9.88
2023-05-23T18:18:39.806Z,8.75
2023-05-23T18:21:10.045Z,7.80
2023-05-23T18:23:38.899Z,11.52
2023-05-23T18:26:08.042Z,6.78
2023-05-23T18:28:36.863Z,7.93
2023-05-23T18:31:07.361Z,8.75
2023-05-23T18:33:36.261Z,7.00
2023-05-23T18:36:06.883Z,9.15
2023-05-23T18:38:35.899Z,6.75
2023-05-23T18:41:05.242Z,8.73
2023-05-23T18:43:33.970Z,6.97
2023-05-23T18:46:03.210Z,8.20
2023-05-23T18:48:35.620Z,7.50
2023-05-23T18:51:05.581Z,6.50
2023-05-23T18:53:34.353Z,8.40
2023-05-23T18:56:03.414Z,7.18
2023-05-23T18:58:32.574Z,6.55
2023-05-23T19:01:03.907Z,6.50
2023-05-23T19:03:34.997Z,7.13
2023-05-23T19:06:04.847Z,5.57
2023-05-23T19:08:34.584Z,7.57
2023-05-23T19:11:04.869Z,7.85
2023-05-23T19:13:33.579Z,6.53
2023-05-23T19:16:02.752Z,8.75
2023-05-23T19:18:32.916Z,7.15
2023-05-23T19:21:02.238Z,6.75
2023-05-23T19:23:31.015Z,8.23
2023-05-23T19:26:00.131Z,7.18
2023-05-23T19:28:31.284Z,7.50
2023-05-23T19:31:00.294Z,9.55
2023-05-23T19:33:29.102Z,7.07
2023-05-23T19:35:59.522Z,9.07
2023-05-23T19:38:28.342Z,9.10
2023-05-23T19:40:57.975Z,6.25
2023-05-23T19:43:26.882Z,9.48
2023-05-23T19:45:55.928Z,8.95
2023-05-23T19:48:28.749Z,7.75
2023-05-23T19:50:59.133Z,7.07
2023-05-23T19:53:27.881Z,7.53
2023-05-23T19:55:57.681Z,11.68
2023-05-23T19:58:32.596Z,9.27
2023-05-23T20:01:01.762Z,8.18
2023-05-23T20:03:30.929Z,6.53
2023-05-23T20:06:01.620Z,12.13
2023-05-23T20:08:30.489Z,8.70
2023-05-23T20:11:00.511Z,10.10
2023-05-23T20:13:29.306Z,7.90
2023-05-23T20:15:58.665Z,6.82
2023-05-23T20:18:27.796Z,9.05
2023-05-23T20:20:56.826Z,9.50
2023-05-23T20:23:28.579Z,9.38
2023-05-23T20:25:57.818Z,7.32
2023-05-23T20:28:27.460Z,7.80
2023-05-23T20:30:56.753Z,8.55
2023-05-23T20:33:25.595Z,8.52
2023-05-23T20:35:55.026Z,10.90
2023-05-23T20:38:24.840Z,7.60
2023-05-23T20:40:55.473Z,8.32
2023-05-23T20:43:24.341Z,12.90
2023-05-23T20:45:53.855Z,9.38
2023-05-23T20:48:22.686Z,8.00
2023-05-23T20:50:52.376Z,7.88
2023-05-23T20:53:24.239Z,8.13
2023-05-23T20:55:54.759Z,9.45
2023-05-23T20:58:23.583Z,9.05
2023-05-23T21:00:52.712Z,8.88
2023-05-23T21:03:21.868Z,8.35
2023-05-23T21:05:51.097Z,9.60
2023-05-23T21:08:19.973Z,9.82
2023-05-23T21:10:51.721Z,8.60
2023-05-23T21:13:24.493Z,9.52
2023-05-23T21:15:53.579Z,9.52
2023-05-23T21:18:22.924Z,7.35
2023-05-23T21:20:52.046Z,8.25
2023-05-23T21:23:20.863Z,6.88
2023-05-23T21:25:50.020Z,9.07
2023-05-23T21:28:18.861Z,8.73
2023-05-23T21:30:50.027Z,9.43
2023-05-23T21:33:18.876Z,9.15
2023-05-23T21:35:48.199Z,9.40
2023-05-23T21:38:16.961Z,14.57
2023-05-23T21:40:46.222Z,13.07
2023-05-23T21:43:15.048Z,8.57
2023-05-23T21:45:44.073Z,10.05
2023-05-23T21:48:14.281Z,8.80
2023-05-23T21:50:43.660Z,7.18
2023-05-23T21:53:12.596Z,11.07
2023-05-23T21:55:41.610Z,7.88
2023-05-23T21:58:10.396Z,12.15
2023-05-23T22:00:40.252Z,7.93
2023-05-23T22:03:09.182Z,12.73
2023-05-23T22:05:39.786Z,10.52
2023-05-23T22:08:08.793Z,10.30
2023-05-23T22:10:37.876Z,9.10
2023-05-23T22:13:07.418Z,10.20
2023-05-23T22:15:36.932Z,11.45
2023-05-23T22:18:06.649Z,8.15
2023-05-23T22:20:38.862Z,8.85
2023-05-23T22:23:09.999Z,8.18
2023-05-23T22:25:39.056Z,8.88
2023-05-23T22:28:07.780Z,10.25
2023-05-23T22:30:36.868Z,9.05
2023-05-23T22:33:12.939Z,9.10
2023-05-23T22:35:43.063Z,10.63
2023-05-23T22:38:13.198Z,9.65
2023-05-23T22:40:42.463Z,11.07
2023-05-23T22:43:11.378Z,9.32
2023-05-23T22:45:42.603Z,8.10
2023-05-23T22:48:12.214Z,10.82
2023-05-23T22:50:41.696Z,10.38
2023-05-23T22:53:12.863Z,9.40
2023-05-23T22:55:42.190Z,9.32
2023-05-23T22:58:11.030Z,8.82
2023-05-23T23:00:40.185Z,9.63
2023-05-23T23:03:09.126Z,8.93
2023-05-23T23:05:38.237Z,11.07
2023-05-23T23:08:07.271Z,8.95
2023-05-23T23:10:37.674Z,9.98
2023-05-23T23:13:06.479Z,9.18
2023-05-23T23:15:36.801Z,12.40
2023-05-23T23:18:06.781Z,12.05
2023-05-23T23:20:35.935Z,8.18
2023-05-23T23:23:04.663Z,7.40
2023-05-23T23:25:33.675Z,9.43
2023-05-23T23:28:03.795Z,8.75
2023-05-23T23:30:32.795Z,12.02
2023-05-23T23:33:01.692Z,9.38
2023-05-23T23:35:30.866Z,9.25
2023-05-23T23:37:59.609Z,8.40
2023-05-23T23:40:28.739Z,9.52
2023-05-23T23:42:57.477Z,10.05
2023-05-23T23:45:27.863Z,8.32
2023-05-23T23:47:56.658Z,10.40
2023-05-23T23:50:26.795Z,9.13
2023-05-23T23:52:58.094Z,11.95
2023-05-23T23:55:27.543Z,10.70
2023-05-23T23:57:56.306Z,11.38
